Lowman, NY (14861)

10:32 AM EDT on May 26, 2015 (GMT -0400)
South of Erin | | Change Station
CLOSE
Current Station
Personal Weather Station
Location: Erin, NY
Elevation: 1663 ft
Nearby Weather Stations

Elev 1663 ft 42.15 °N, 76.65 °W | Updated 15 seconds ago

Mostly Cloudy
Mostly Cloudy
72.1 °F
Feels Like 72 °F
N
2.1
Wind Variable Wind from SSW
Gusts 6.0 mph

Today
High -- | Low -- °F
--% Chance of Precip.
Yesterday
High -- | Low -- °F
Precip. -- in
5:37 AM 8:31 PM
First Quarter, 58% visible
Pressure 30.15 in
Visibility 10.0 miles
Clouds Scattered Clouds 6500 ft
Mostly Cloudy 12000 ft
Heat Index 72 °F
Dew Point 66 °F
Humidity 81%
Rainfall 0.00 in
Snow Depth Not available.
UV 4.0 out of 12
Pollen 7.40 out of 12
Air Quality Not available.
Flu Activity Widespread
METAR KELM 261353Z 23009KT 10SM SCT065 BKN120 24/18 A3017 RMK AO2 SLP208 T02390178

More Conditions Fewer Conditions

Pressure 30.15 in
Visibility 10.0 miles
Clouds Scattered Clouds 6500 ft
Mostly Cloudy 12000 ft
Heat Index 72 °F
Dew Point 66 °F
Humidity 81%
Rainfall 0.00 in
Snow Depth Not available.
UV 4.0 out of 12
Pollen 7.40 out of 12
Air Quality Not available.
Flu Activity Widespread
METAR KELM 261353Z 23009KT 10SM SCT065 BKN120 24/18 A3017 RMK AO2 SLP208 T02390178

More Conditions Fewer Conditions

10-Day Weather Forecast

Almanac

Astronomy

May. 26, 2015 Rise Set
Actual Time
Civil Twilight
Nautical Twilight
Astronomical Twilight
Moon
Length of Visible Light
Length of Day
Tomorrow will be .
, % of the Moon is Illuminated

Today's Extremes

State Highs State Lows

Community

WunderPhotos

Upload Photos

1,824,343 photos uploaded!

WunderBlogs® & News

Nearby

Air Quality

  Air Quality AQ Index Pollutant
Not available.

Snow Depth

Station Depth Elevation

Earthquake Activity

City Distance Mag. Time & Date
Minimum magnitude displayed is 2.5.

Coastal Water Temperatures

Place Temperature

Stations

Nearby Weather Stations

Station Location Temp. Windchill Dew Point Humidity Wind Precip. Elev Updated Type